createdAt,value
2023-03-22T00:00:56.679Z,9.32
2023-03-22T00:03:25.414Z,9.36
2023-03-22T00:05:59.465Z,9.33
2023-03-22T00:08:27.381Z,9.33
2023-03-22T00:10:55.382Z,9.34
2023-03-22T00:13:23.287Z,9.33
2023-03-22T00:15:51.247Z,9.35
2023-03-22T00:18:19.403Z,9.41
2023-03-22T00:20:50.591Z,9.39
2023-03-22T00:23:19.959Z,9.42
2023-03-22T00:25:48.153Z,9.42
2023-03-22T00:28:17.223Z,9.45
2023-03-22T00:30:53.880Z,9.47
2023-03-22T00:33:21.785Z,9.48
2023-03-22T00:35:50.904Z,9.55
2023-03-22T00:38:21.911Z,9.49
2023-03-22T00:40:51.442Z,9.49
2023-03-22T00:43:19.334Z,9.45
2023-03-22T00:45:47.281Z,9.49
2023-03-22T00:48:15.473Z,9.49
2023-03-22T00:50:43.708Z,9.50
2023-03-22T00:53:11.612Z,9.47
2023-03-22T00:55:40.910Z,9.51
2023-03-22T00:58:08.809Z,9.52
2023-03-22T01:00:36.902Z,9.54
2023-03-22T01:03:05.007Z,9.56
2023-03-22T01:05:33.540Z,9.57
2023-03-22T01:08:08.575Z,9.57
2023-03-22T01:10:37.169Z,9.55
2023-03-22T01:13:07.247Z,9.66
2023-03-22T01:15:36.648Z,9.63
2023-03-22T01:18:04.967Z,9.62
2023-03-22T01:20:33.269Z,9.64
2023-03-22T01:23:01.176Z,9.60
2023-03-22T01:25:29.098Z,9.57
2023-03-22T01:27:56.975Z,9.52
2023-03-22T01:30:26.420Z,9.46
2023-03-22T01:32:54.346Z,9.37
2023-03-22T01:35:22.840Z,9.32
2023-03-22T01:37:50.835Z,9.23
2023-03-22T01:40:19.010Z,9.22
2023-03-22T01:42:46.954Z,9.13
2023-03-22T01:45:37.855Z,9.04
2023-03-22T01:48:13.893Z,9.00
2023-03-22T01:50:44.573Z,8.91
2023-03-22T01:53:14.201Z,8.87
2023-03-22T01:55:42.777Z,8.87
2023-03-22T01:58:10.788Z,8.83
2023-03-22T02:00:40.485Z,8.86
2023-03-22T02:03:08.659Z,8.91
2023-03-22T02:05:37.173Z,8.91
2023-03-22T02:08:05.404Z,8.92
2023-03-22T02:10:33.336Z,8.95
2023-03-22T02:13:25.849Z,8.98
2023-03-22T02:16:00.061Z,9.01
2023-03-22T02:18:40.356Z,9.02
2023-03-22T02:21:42.660Z,9.07
2023-03-22T02:24:46.308Z,9.07
2023-03-22T02:27:27.293Z,9.11
2023-03-22T02:30:07.152Z,9.09
2023-03-22T02:33:01.775Z,9.09
2023-03-22T02:35:38.531Z,9.15
2023-03-22T02:38:34.914Z,9.17
2023-03-22T02:41:10.748Z,9.15
2023-03-22T02:43:46.221Z,9.14
2023-03-22T02:46:18.038Z,9.16
2023-03-22T02:48:52.867Z,9.16
2023-03-22T02:51:22.701Z,9.23
2023-03-22T02:53:54.286Z,9.31
2023-03-22T02:56:25.814Z,9.40
2023-03-22T02:58:56.541Z,9.36
2023-03-22T03:01:27.121Z,9.40
2023-03-22T03:03:58.575Z,9.38
2023-03-22T03:06:28.992Z,9.35
2023-03-22T03:08:58.049Z,9.39
2023-03-22T03:11:27.388Z,9.43
2023-03-22T03:13:55.570Z,9.41
2023-03-22T03:16:26.586Z,9.42
2023-03-22T03:19:00.095Z,9.43
2023-03-22T03:21:32.706Z,9.41
2023-03-22T03:24:08.074Z,9.52
2023-03-22T03:26:42.426Z,9.50
2023-03-22T03:29:14.205Z,9.56
2023-03-22T03:31:45.481Z,9.45
2023-03-22T03:34:19.054Z,9.46
2023-03-22T03:36:52.326Z,9.47
2023-03-22T03:39:22.062Z,9.57
2023-03-22T03:41:52.414Z,9.52
2023-03-22T03:44:20.514Z,9.46
2023-03-22T03:46:49.048Z,9.54
2023-03-22T03:49:17.878Z,9.53
2023-03-22T03:51:50.314Z,9.56
2023-03-22T03:54:18.300Z,9.52
2023-03-22T03:56:47.827Z,9.43
2023-03-22T03:59:17.713Z,9.46
2023-03-22T04:01:50.322Z,9.55
2023-03-22T04:04:26.331Z,9.50
2023-03-22T04:06:56.874Z,9.59
2023-03-22T04:09:25.660Z,9.54
2023-03-22T04:11:53.637Z,9.54
2023-03-22T04:14:23.445Z,9.55
2023-03-22T04:16:51.606Z,9.64
2023-03-22T04:19:19.702Z,9.64
2023-03-22T04:21:48.136Z,9.59
2023-03-22T04:24:16.321Z,9.55
2023-03-22T04:26:44.228Z,9.52
2023-03-22T04:29:12.155Z,9.48
2023-03-22T04:31:41.500Z,9.43
2023-03-22T04:34:09.478Z,9.42
2023-03-22T04:36:39.618Z,9.42
2023-03-22T04:39:08.970Z,9.44
2023-03-22T04:41:37.157Z,9.45
2023-03-22T04:44:05.273Z,9.51
2023-03-22T04:46:34.874Z,9.58
2023-03-22T04:49:04.654Z,9.57
2023-03-22T04:51:33.068Z,9.60
2023-03-22T04:54:01.276Z,9.63
2023-03-22T04:56:29.211Z,9.58
2023-03-22T04:58:57.138Z,9.56
2023-03-22T05:01:25.135Z,9.60
2023-03-22T05:03:53.032Z,9.68
2023-03-22T05:06:22.287Z,9.66
2023-03-22T05:08:50.336Z,9.60
2023-03-22T05:11:19.483Z,9.62
2023-03-22T05:13:47.373Z,9.68
2023-03-22T05:16:15.459Z,9.70
2023-03-22T05:18:45.521Z,9.65
2023-03-22T05:21:15.474Z,9.56
2023-03-22T05:23:45.766Z,9.62
2023-03-22T05:26:15.742Z,9.56
2023-03-22T05:28:44.473Z,9.52
2023-03-22T05:31:14.679Z,9.55
2023-03-22T05:33:42.758Z,9.46
2023-03-22T05:36:12.330Z,9.44
2023-03-22T05:38:41.343Z,9.48
2023-03-22T05:41:10.697Z,9.50
2023-03-22T05:43:38.779Z,9.49
2023-03-22T05:46:07.555Z,9.48
2023-03-22T05:48:36.009Z,9.46
2023-03-22T05:51:05.053Z,9.54
2023-03-22T05:53:33.274Z,9.56
2023-03-22T05:56:01.987Z,9.57
2023-03-22T05:58:31.855Z,9.58
2023-03-22T06:01:01.216Z,9.63
2023-03-22T06:03:29.180Z,9.60
2023-03-22T06:05:57.084Z,9.62
2023-03-22T06:08:26.744Z,9.62
2023-03-22T06:10:55.255Z,9.75
2023-03-22T06:13:23.342Z,9.83
2023-03-22T06:15:52.676Z,9.95
2023-03-22T06:18:20.607Z,9.99
2023-03-22T06:20:48.500Z,9.99
2023-03-22T06:23:16.406Z,10.08
2023-03-22T06:25:44.353Z,10.16
2023-03-22T06:28:12.280Z,10.14
2023-03-22T06:30:40.535Z,10.15
2023-03-22T06:33:09.989Z,10.24
2023-03-22T06:35:37.997Z,10.24
2023-03-22T06:38:05.945Z,10.23
2023-03-22T06:40:35.766Z,10.24
2023-03-22T06:43:06.951Z,10.25
2023-03-22T06:45:36.024Z,10.27
2023-03-22T06:48:04.043Z,10.24
2023-03-22T06:50:34.128Z,10.20
2023-03-22T06:53:02.060Z,10.22
2023-03-22T06:55:33.319Z,10.21
2023-03-22T06:58:01.464Z,10.20
2023-03-22T07:00:29.381Z,10.23
2023-03-22T07:02:57.930Z,10.27
2023-03-22T07:05:25.986Z,10.30
2023-03-22T07:07:55.311Z,10.29
2023-03-22T07:10:23.279Z,10.28
2023-03-22T07:12:51.202Z,10.35
2023-03-22T07:15:24.219Z,10.40
2023-03-22T07:17:52.548Z,10.39
2023-03-22T07:20:20.941Z,10.49
2023-03-22T07:22:48.847Z,10.57
2023-03-22T07:25:18.733Z,10.61
2023-03-22T07:27:47.220Z,10.64
2023-03-22T07:30:15.384Z,10.65
2023-03-22T07:32:43.344Z,10.65
2023-03-22T07:35:11.946Z,10.71
2023-03-22T07:37:40.427Z,10.69
2023-03-22T07:40:09.836Z,10.66
2023-03-22T07:42:39.109Z,10.75
2023-03-22T07:45:08.225Z,10.72
2023-03-22T07:47:41.142Z,10.84
2023-03-22T07:50:11.842Z,10.79
2023-03-22T07:52:40.336Z,10.91
2023-03-22T07:55:09.258Z,10.95
2023-03-22T07:57:39.016Z,11.01
2023-03-22T08:00:10.415Z,11.08
2023-03-22T08:02:39.116Z,11.01
2023-03-22T08:05:07.738Z,11.05
2023-03-22T08:07:35.640Z,11.11
2023-03-22T08:10:03.564Z,11.18
2023-03-22T08:12:32.565Z,11.18
2023-03-22T08:15:01.874Z,11.25
2023-03-22T08:17:30.399Z,11.27
2023-03-22T08:20:00.667Z,11.25
2023-03-22T08:22:29.792Z,11.43
2023-03-22T08:24:57.806Z,11.54
2023-03-22T08:27:25.715Z,11.62
2023-03-22T08:29:53.629Z,11.73
2023-03-22T08:32:22.879Z,11.70
2023-03-22T08:34:51.189Z,11.74
2023-03-22T08:37:20.354Z,11.97
2023-03-22T08:39:48.331Z,11.99
2023-03-22T08:42:16.814Z,12.03
2023-03-22T08:44:44.769Z,12.12
2023-03-22T08:47:12.646Z,12.11
2023-03-22T08:49:42.157Z,12.20
2023-03-22T08:52:10.557Z,12.30
2023-03-22T08:54:38.871Z,12.36
2023-03-22T08:57:09.482Z,12.35
2023-03-22T08:59:37.446Z,12.41
2023-03-22T09:02:05.804Z,12.67
2023-03-22T09:04:33.839Z,12.92
2023-03-22T09:07:04.433Z,13.01
2023-03-22T09:09:32.365Z,13.06
2023-03-22T09:12:00.736Z,13.10
2023-03-22T09:14:28.652Z,13.07
2023-03-22T09:16:56.621Z,12.91
2023-03-22T09:19:24.537Z,12.88
2023-03-22T09:21:52.497Z,12.81
2023-03-22T09:24:22.311Z,12.92
2023-03-22T09:26:50.457Z,13.39
2023-03-22T09:29:19.531Z,13.44
2023-03-22T09:31:48.926Z,13.39
2023-03-22T09:34:16.976Z,13.38
2023-03-22T09:36:44.882Z,13.21
2023-03-22T09:39:12.936Z,13.08
2023-03-22T09:41:46.134Z,13.20
2023-03-22T09:44:18.408Z,13.29
2023-03-22T09:46:49.673Z,13.22
2023-03-22T09:49:20.855Z,13.05
2023-03-22T09:51:50.464Z,13.05
2023-03-22T09:54:21.670Z,13.02
2023-03-22T09:56:54.692Z,13.04
2023-03-22T09:59:24.736Z,13.07
2023-03-22T10:01:55.147Z,13.08
2023-03-22T10:04:44.433Z,13.18
2023-03-22T10:07:18.012Z,13.08
2023-03-22T10:09:53.839Z,13.17
2023-03-22T10:12:27.219Z,13.09
2023-03-22T10:15:04.875Z,13.07
2023-03-22T10:17:32.979Z,13.17
2023-03-22T10:20:05.447Z,13.24
2023-03-22T10:22:37.031Z,13.25
2023-03-22T10:25:06.668Z,13.33
2023-03-22T10:27:36.404Z,13.48
2023-03-22T10:30:09.809Z,13.53
2023-03-22T10:32:56.379Z,13.52
2023-03-22T10:35:28.187Z,13.59
2023-03-22T10:37:57.454Z,13.49
2023-03-22T10:40:28.203Z,13.41
2023-03-22T10:43:04.767Z,13.42
2023-03-22T10:45:35.106Z,13.46
2023-03-22T10:48:06.172Z,13.39
2023-03-22T10:50:36.618Z,13.47
2023-03-22T10:53:06.585Z,13.59
2023-03-22T10:55:39.518Z,13.56
2023-03-22T10:58:16.714Z,13.45
2023-03-22T11:00:47.480Z,13.52
2023-03-22T11:03:28.679Z,13.53
2023-03-22T11:06:01.609Z,13.45
2023-03-22T11:08:29.607Z,13.46
2023-03-22T11:11:00.392Z,13.42
2023-03-22T11:13:30.036Z,13.46
2023-03-22T11:16:02.480Z,13.48
2023-03-22T11:18:32.326Z,13.57
2023-03-22T11:21:02.038Z,13.50
2023-03-22T11:23:33.731Z,13.48
2023-03-22T11:26:07.253Z,13.41
2023-03-22T11:28:38.840Z,13.34
2023-03-22T11:31:09.472Z,13.31
2023-03-22T11:34:07.153Z,13.38
2023-03-22T11:36:45.446Z,13.31
2023-03-22T11:39:17.726Z,13.28
2023-03-22T11:41:52.199Z,13.20
2023-03-22T11:44:23.089Z,13.22
2023-03-22T11:46:54.743Z,13.27
2023-03-22T11:49:29.302Z,13.27
2023-03-22T11:51:57.492Z,13.31
2023-03-22T11:54:30.742Z,13.38
2023-03-22T11:57:01.592Z,13.45
2023-03-22T11:59:32.000Z,13.47
2023-03-22T12:02:04.552Z,13.59
2023-03-22T12:04:36.633Z,13.55
2023-03-22T12:07:08.009Z,13.49
2023-03-22T12:09:42.359Z,13.53
2023-03-22T12:12:15.944Z,13.55
2023-03-22T12:14:50.193Z,13.48
2023-03-22T12:17:24.730Z,13.51
2023-03-22T12:20:00.879Z,13.52
2023-03-22T12:22:32.214Z,13.43
2023-03-22T12:25:01.652Z,13.36
2023-03-22T12:27:34.330Z,13.40
2023-03-22T12:30:08.416Z,13.43
2023-03-22T12:32:38.673Z,13.31
2023-03-22T12:35:17.214Z,13.26
2023-03-22T12:37:48.091Z,13.12
2023-03-22T12:40:25.623Z,12.99
2023-03-22T12:43:00.312Z,12.87
2023-03-22T12:45:31.319Z,12.69
2023-03-22T12:48:04.518Z,12.56
2023-03-22T12:50:36.135Z,12.49
2023-03-22T12:53:04.740Z,12.34
2023-03-22T12:55:34.415Z,12.28
2023-03-22T12:58:02.860Z,12.30
2023-03-22T13:00:36.179Z,12.17
2023-03-22T13:03:10.390Z,12.14
2023-03-22T13:05:38.914Z,12.11
2023-03-22T13:08:07.036Z,12.06
2023-03-22T13:11:04.994Z,12.05
2023-03-22T13:13:47.377Z,12.06
2023-03-22T13:16:19.849Z,12.13
2023-03-22T13:19:03.296Z,12.05
2023-03-22T13:21:36.758Z,12.03
2023-03-22T13:24:23.268Z,11.95
2023-03-22T13:26:52.875Z,12.00
2023-03-22T13:29:22.635Z,12.05
2023-03-22T13:31:58.731Z,12.05
2023-03-22T13:34:38.706Z,12.05
2023-03-22T13:37:10.980Z,12.00
2023-03-22T13:39:39.418Z,12.02
2023-03-22T13:42:19.006Z,12.01
2023-03-22T13:44:47.275Z,12.14
2023-03-22T13:47:36.504Z,12.11
2023-03-22T13:50:11.283Z,12.17
2023-03-22T13:52:41.904Z,12.22
2023-03-22T13:55:37.339Z,12.26
2023-03-22T13:58:06.318Z,12.13
2023-03-22T14:00:48.092Z,12.14
2023-03-22T14:03:23.032Z,12.15
2023-03-22T14:06:05.382Z,12.19
2023-03-22T14:08:34.006Z,12.15
2023-03-22T14:11:05.095Z,12.09
2023-03-22T14:13:36.401Z,12.13
2023-03-22T14:16:08.999Z,12.12
2023-03-22T14:18:42.149Z,12.17
2023-03-22T14:21:14.774Z,12.19
